sensor_id;sensor_type;location;lat;lon;timestamp;P1;durP1;ratioP1;P2;durP2;ratioP2
20379;SDS011;10349;48.666;8.948;2024-03-02T00:00:05;6.13;;;5.33;;
20379;SDS011;10349;48.666;8.948;2024-03-02T00:02:40;6.13;;;4.97;;
20379;SDS011;10349;48.666;8.948;2024-03-02T00:05:06;7.60;;;5.10;;
20379;SDS011;10349;48.666;8.948;2024-03-02T00:07:33;4.97;;;4.50;;
20379;SDS011;10349;48.666;8.948;2024-03-02T00:09:59;5.83;;;5.23;;
20379;SDS011;10349;48.666;8.948;2024-03-02T00:12:25;10.77;;;5.23;;
20379;SDS011;10349;48.666;8.948;2024-03-02T00:14:51;22.93;;;10.43;;
20379;SDS011;10349;48.666;8.948;2024-03-02T00:17:24;20.13;;;10.23;;
20379;SDS011;10349;48.666;8.948;2024-03-02T00:19:53;11.23;;;5.60;;
20379;SDS011;10349;48.666;8.948;2024-03-02T00:22:18;8.67;;;5.80;;
20379;SDS011;10349;48.666;8.948;2024-03-02T00:24:44;9.43;;;4.93;;
20379;SDS011;10349;48.666;8.948;2024-03-02T00:27:10;7.90;;;5.23;;
20379;SDS011;10349;48.666;8.948;2024-03-02T00:29:40;7.63;;;6.63;;
20379;SDS011;10349;48.666;8.948;2024-03-02T00:32:14;6.60;;;6.00;;
20379;SDS011;10349;48.666;8.948;2024-03-02T00:34:41;7.70;;;5.83;;
20379;SDS011;10349;48.666;8.948;2024-03-02T00:37:07;6.27;;;5.67;;
20379;SDS011;10349;48.666;8.948;2024-03-02T00:39:33;5.50;;;4.70;;
20379;SDS011;10349;48.666;8.948;2024-03-02T00:41:59;6.03;;;5.50;;
20379;SDS011;10349;48.666;8.948;2024-03-02T00:44:25;6.80;;;6.23;;
20379;SDS011;10349;48.666;8.948;2024-03-02T00:46:51;9.93;;;5.60;;
20379;SDS011;10349;48.666;8.948;2024-03-02T00:49:21;12.03;;;8.30;;
20379;SDS011;10349;48.666;8.948;2024-03-02T00:51:48;12.47;;;7.53;;
20379;SDS011;10349;48.666;8.948;2024-03-02T00:54:15;18.43;;;10.13;;
20379;SDS011;10349;48.666;8.948;2024-03-02T00:56:45;11.00;;;7.60;;
20379;SDS011;10349;48.666;8.948;2024-03-02T00:59:13;11.30;;;8.03;;
20379;SDS011;10349;48.666;8.948;2024-03-02T01:01:38;16.33;;;8.60;;
20379;SDS011;10349;48.666;8.948;2024-03-02T01:04:04;13.70;;;7.87;;
20379;SDS011;10349;48.666;8.948;2024-03-02T01:06:30;15.43;;;6.83;;
20379;SDS011;10349;48.666;8.948;2024-03-02T01:08:56;13.77;;;7.30;;
20379;SDS011;10349;48.666;8.948;2024-03-02T01:11:21;15.20;;;8.17;;
20379;SDS011;10349;48.666;8.948;2024-03-02T01:13:47;11.27;;;7.93;;
20379;SDS011;10349;48.666;8.948;2024-03-02T01:16:13;17.23;;;8.40;;
20379;SDS011;10349;48.666;8.948;2024-03-02T01:18:40;20.17;;;9.30;;
20379;SDS011;10349;48.666;8.948;2024-03-02T01:21:06;16.07;;;9.70;;
20379;SDS011;10349;48.666;8.948;2024-03-02T01:23:32;20.67;;;10.40;;
20379;SDS011;10349;48.666;8.948;2024-03-02T01:25:58;14.17;;;7.97;;
20379;SDS011;10349;48.666;8.948;2024-03-02T01:28:23;16.97;;;9.30;;
20379;SDS011;10349;48.666;8.948;2024-03-02T01:30:49;12.53;;;8.03;;
20379;SDS011;10349;48.666;8.948;2024-03-02T01:33:16;16.80;;;9.20;;
20379;SDS011;10349;48.666;8.948;2024-03-02T01:35:42;13.97;;;8.30;;
20379;SDS011;10349;48.666;8.948;2024-03-02T01:38:08;16.67;;;9.20;;
20379;SDS011;10349;48.666;8.948;2024-03-02T01:40:34;21.13;;;9.17;;
20379;SDS011;10349;48.666;8.948;2024-03-02T01:43:01;17.93;;;10.10;;
20379;SDS011;10349;48.666;8.948;2024-03-02T01:45:27;16.43;;;8.60;;
20379;SDS011;10349;48.666;8.948;2024-03-02T01:47:53;16.40;;;8.83;;
20379;SDS011;10349;48.666;8.948;2024-03-02T01:50:28;19.70;;;9.83;;
20379;SDS011;10349;48.666;8.948;2024-03-02T01:52:56;20.07;;;9.73;;
20379;SDS011;10349;48.666;8.948;2024-03-02T01:55:21;18.10;;;8.50;;
20379;SDS011;10349;48.666;8.948;2024-03-02T01:57:48;14.37;;;8.30;;
20379;SDS011;10349;48.666;8.948;2024-03-02T02:00:15;19.40;;;8.90;;
20379;SDS011;10349;48.666;8.948;2024-03-02T02:02:42;11.67;;;7.73;;
20379;SDS011;10349;48.666;8.948;2024-03-02T02:05:08;14.93;;;9.30;;
20379;SDS011;10349;48.666;8.948;2024-03-02T02:07:34;19.20;;;9.67;;
20379;SDS011;10349;48.666;8.948;2024-03-02T02:10:00;11.83;;;8.30;;
20379;SDS011;10349;48.666;8.948;2024-03-02T02:12:27;16.03;;;9.87;;
20379;SDS011;10349;48.666;8.948;2024-03-02T02:14:53;21.67;;;11.47;;
20379;SDS011;10349;48.666;8.948;2024-03-02T02:17:18;14.97;;;8.70;;
20379;SDS011;10349;48.666;8.948;2024-03-02T02:19:44;22.60;;;8.40;;
20379;SDS011;10349;48.666;8.948;2024-03-02T02:22:10;19.00;;;11.30;;
20379;SDS011;10349;48.666;8.948;2024-03-02T02:24:39;14.97;;;8.70;;
20379;SDS011;10349;48.666;8.948;2024-03-02T02:27:08;12.90;;;7.77;;
20379;SDS011;10349;48.666;8.948;2024-03-02T02:29:35;18.93;;;10.03;;
20379;SDS011;10349;48.666;8.948;2024-03-02T02:32:00;15.90;;;9.27;;
20379;SDS011;10349;48.666;8.948;2024-03-02T02:34:26;10.70;;;8.60;;
20379;SDS011;10349;48.666;8.948;2024-03-02T02:36:52;14.87;;;8.03;;
20379;SDS011;10349;48.666;8.948;2024-03-02T02:39:18;14.73;;;8.20;;
20379;SDS011;10349;48.666;8.948;2024-03-02T02:41:47;11.67;;;8.20;;
20379;SDS011;10349;48.666;8.948;2024-03-02T02:44:14;14.63;;;9.10;;
20379;SDS011;10349;48.666;8.948;2024-03-02T02:46:40;14.47;;;9.80;;
20379;SDS011;10349;48.666;8.948;2024-03-02T02:49:06;17.20;;;7.40;;
20379;SDS011;10349;48.666;8.948;2024-03-02T02:51:32;11.00;;;7.50;;
20379;SDS011;10349;48.666;8.948;2024-03-02T02:53:57;16.80;;;8.70;;
20379;SDS011;10349;48.666;8.948;2024-03-02T02:56:23;12.07;;;7.40;;
20379;SDS011;10349;48.666;8.948;2024-03-02T02:58:49;14.13;;;8.27;;
20379;SDS011;10349;48.666;8.948;2024-03-02T03:01:15;13.20;;;8.07;;
20379;SDS011;10349;48.666;8.948;2024-03-02T03:03:44;15.67;;;8.77;;
20379;SDS011;10349;48.666;8.948;2024-03-02T03:06:11;15.60;;;8.27;;
20379;SDS011;10349;48.666;8.948;2024-03-02T03:08:36;15.83;;;9.07;;
20379;SDS011;10349;48.666;8.948;2024-03-02T03:11:03;16.70;;;8.50;;
20379;SDS011;10349;48.666;8.948;2024-03-02T03:13:29;12.97;;;8.20;;
20379;SDS011;10349;48.666;8.948;2024-03-02T03:15:55;11.53;;;7.00;;
20379;SDS011;10349;48.666;8.948;2024-03-02T03:18:21;7.77;;;6.53;;
20379;SDS011;10349;48.666;8.948;2024-03-02T03:20:47;13.07;;;9.17;;
20379;SDS011;10349;48.666;8.948;2024-03-02T03:23:12;10.80;;;8.20;;
20379;SDS011;10349;48.666;8.948;2024-03-02T03:25:41;12.00;;;7.90;;
20379;SDS011;10349;48.666;8.948;2024-03-02T03:28:07;11.40;;;7.80;;
20379;SDS011;10349;48.666;8.948;2024-03-02T03:30:36;10.67;;;7.07;;
20379;SDS011;10349;48.666;8.948;2024-03-02T03:33:02;18.80;;;9.10;;
20379;SDS011;10349;48.666;8.948;2024-03-02T03:35:27;16.83;;;9.27;;
20379;SDS011;10349;48.666;8.948;2024-03-02T03:37:53;16.27;;;9.20;;
20379;SDS011;10349;48.666;8.948;2024-03-02T03:40:19;14.97;;;9.37;;
20379;SDS011;10349;48.666;8.948;2024-03-02T03:42:45;15.37;;;9.07;;
20379;SDS011;10349;48.666;8.948;2024-03-02T03:45:10;13.27;;;8.43;;
20379;SDS011;10349;48.666;8.948;2024-03-02T03:47:36;22.03;;;9.90;;
20379;SDS011;10349;48.666;8.948;2024-03-02T03:50:02;13.87;;;8.20;;
20379;SDS011;10349;48.666;8.948;2024-03-02T03:52:30;8.70;;;6.67;;
20379;SDS011;10349;48.666;8.948;2024-03-02T03:54:56;8.63;;;6.40;;
20379;SDS011;10349;48.666;8.948;2024-03-02T03:57:22;16.10;;;7.67;;
20379;SDS011;10349;48.666;8.948;2024-03-02T03:59:47;10.00;;;6.20;;
20379;SDS011;10349;48.666;8.948;2024-03-02T04:02:13;10.47;;;8.10;;
20379;SDS011;10349;48.666;8.948;2024-03-02T04:04:38;12.40;;;6.20;;
20379;SDS011;10349;48.666;8.948;2024-03-02T04:07:04;9.83;;;7.23;;
20379;SDS011;10349;48.666;8.948;2024-03-02T04:09:30;11.80;;;6.63;;
20379;SDS011;10349;48.666;8.948;2024-03-02T04:11:55;11.10;;;6.97;;
20379;SDS011;10349;48.666;8.948;2024-03-02T04:14:21;13.97;;;7.70;;
20379;SDS011;10349;48.666;8.948;2024-03-02T04:16:46;13.30;;;8.93;;
20379;SDS011;10349;48.666;8.948;2024-03-02T04:19:12;13.73;;;8.37;;
20379;SDS011;10349;48.666;8.948;2024-03-02T04:21:37;14.03;;;7.50;;
20379;SDS011;10349;48.666;8.948;2024-03-02T04:24:03;12.53;;;8.00;;
20379;SDS011;10349;48.666;8.948;2024-03-02T04:26:29;16.13;;;8.43;;
20379;SDS011;10349;48.666;8.948;2024-03-02T04:28:55;14.97;;;7.80;;
20379;SDS011;10349;48.666;8.948;2024-03-02T04:31:20;14.73;;;7.00;;
20379;SDS011;10349;48.666;8.948;2024-03-02T04:33:46;15.23;;;6.83;;
20379;SDS011;10349;48.666;8.948;2024-03-02T04:36:12;10.30;;;6.17;;
20379;SDS011;10349;48.666;8.948;2024-03-02T04:38:38;10.33;;;6.90;;
20379;SDS011;10349;48.666;8.948;2024-03-02T04:41:04;11.67;;;6.13;;
20379;SDS011;10349;48.666;8.948;2024-03-02T04:43:34;12.20;;;7.50;;
20379;SDS011;10349;48.666;8.948;2024-03-02T04:46:00;12.30;;;7.30;;
20379;SDS011;10349;48.666;8.948;2024-03-02T04:48:26;10.30;;;6.10;;
20379;SDS011;10349;48.666;8.948;2024-03-02T04:50:52;12.60;;;8.47;;
20379;SDS011;10349;48.666;8.948;2024-03-02T04:53:18;9.43;;;6.00;;
20379;SDS011;10349;48.666;8.948;2024-03-02T04:55:43;8.67;;;7.03;;
20379;SDS011;10349;48.666;8.948;2024-03-02T04:58:09;11.60;;;7.03;;
20379;SDS011;10349;48.666;8.948;2024-03-02T05:00:35;16.73;;;7.53;;
20379;SDS011;10349;48.666;8.948;2024-03-02T05:03:00;16.57;;;8.10;;
20379;SDS011;10349;48.666;8.948;2024-03-02T05:05:26;8.90;;;6.40;;
20379;SDS011;10349;48.666;8.948;2024-03-02T05:07:52;12.97;;;7.80;;
20379;SDS011;10349;48.666;8.948;2024-03-02T05:10:18;20.87;;;9.27;;
20379;SDS011;10349;48.666;8.948;2024-03-02T05:12:44;10.40;;;6.07;;
20379;SDS011;10349;48.666;8.948;2024-03-02T05:15:10;12.97;;;7.00;;
20379;SDS011;10349;48.666;8.948;2024-03-02T05:17:37;8.83;;;6.60;;
20379;SDS011;10349;48.666;8.948;2024-03-02T05:20:03;13.23;;;7.07;;
20379;SDS011;10349;48.666;8.948;2024-03-02T05:22:30;13.60;;;7.03;;
20379;SDS011;10349;48.666;8.948;2024-03-02T05:24:55;13.50;;;7.33;;
20379;SDS011;10349;48.666;8.948;2024-03-02T05:27:21;15.73;;;8.57;;
20379;SDS011;10349;48.666;8.948;2024-03-02T05:29:47;16.40;;;6.90;;
20379;SDS011;10349;48.666;8.948;2024-03-02T05:32:13;16.53;;;7.30;;
20379;SDS011;10349;48.666;8.948;2024-03-02T05:34:38;11.87;;;5.73;;
20379;SDS011;10349;48.666;8.948;2024-03-02T05:37:04;9.70;;;6.43;;
20379;SDS011;10349;48.666;8.948;2024-03-02T05:39:30;11.87;;;7.43;;
20379;SDS011;10349;48.666;8.948;2024-03-02T05:41:55;10.07;;;7.07;;
20379;SDS011;10349;48.666;8.948;2024-03-02T05:44:21;12.77;;;7.00;;
20379;SDS011;10349;48.666;8.948;2024-03-02T05:46:47;10.63;;;6.70;;
20379;SDS011;10349;48.666;8.948;2024-03-02T05:49:13;9.23;;;6.67;;
20379;SDS011;10349;48.666;8.948;2024-03-02T05:51:39;13.70;;;7.73;;
20379;SDS011;10349;48.666;8.948;2024-03-02T05:54:04;19.20;;;12.30;;
20379;SDS011;10349;48.666;8.948;2024-03-02T05:56:30;19.70;;;7.40;;
20379;SDS011;10349;48.666;8.948;2024-03-02T05:58:56;12.80;;;7.27;;
20379;SDS011;10349;48.666;8.948;2024-03-02T06:01:47;9.23;;;7.40;;
20379;SDS011;10349;48.666;8.948;2024-03-02T06:04:15;13.83;;;6.60;;
20379;SDS011;10349;48.666;8.948;2024-03-02T06:06:41;9.30;;;6.70;;
20379;SDS011;10349;48.666;8.948;2024-03-02T06:09:08;13.00;;;7.87;;
20379;SDS011;10349;48.666;8.948;2024-03-02T06:11:34;10.43;;;7.00;;
20379;SDS011;10349;48.666;8.948;2024-03-02T06:14:01;12.63;;;7.30;;
20379;SDS011;10349;48.666;8.948;2024-03-02T06:16:27;11.17;;;6.83;;
20379;SDS011;10349;48.666;8.948;2024-03-02T06:18:52;13.50;;;7.27;;
20379;SDS011;10349;48.666;8.948;2024-03-02T06:21:19;8.30;;;6.57;;
20379;SDS011;10349;48.666;8.948;2024-03-02T06:23:45;9.70;;;6.20;;
20379;SDS011;10349;48.666;8.948;2024-03-02T06:26:11;11.77;;;7.23;;
20379;SDS011;10349;48.666;8.948;2024-03-02T06:28:37;15.60;;;8.37;;
20379;SDS011;10349;48.666;8.948;2024-03-02T06:31:03;15.33;;;8.97;;
20379;SDS011;10349;48.666;8.948;2024-03-02T06:33:29;11.37;;;7.07;;
20379;SDS011;10349;48.666;8.948;2024-03-02T06:35:55;11.77;;;6.50;;
20379;SDS011;10349;48.666;8.948;2024-03-02T06:38:20;13.97;;;7.23;;
20379;SDS011;10349;48.666;8.948;2024-03-02T06:40:46;16.53;;;9.17;;
20379;SDS011;10349;48.666;8.948;2024-03-02T06:43:12;20.47;;;9.60;;
20379;SDS011;10349;48.666;8.948;2024-03-02T06:45:38;19.57;;;10.23;;
20379;SDS011;10349;48.666;8.948;2024-03-02T06:48:04;21.07;;;11.23;;
20379;SDS011;10349;48.666;8.948;2024-03-02T06:50:30;26.00;;;10.27;;
20379;SDS011;10349;48.666;8.948;2024-03-02T06:52:56;15.03;;;9.07;;
20379;SDS011;10349;48.666;8.948;2024-03-02T06:55:22;18.03;;;9.00;;
20379;SDS011;10349;48.666;8.948;2024-03-02T06:57:49;15.57;;;9.27;;
20379;SDS011;10349;48.666;8.948;2024-03-02T07:00:16;13.60;;;8.30;;
20379;SDS011;10349;48.666;8.948;2024-03-02T07:02:43;14.57;;;8.13;;
20379;SDS011;10349;48.666;8.948;2024-03-02T07:05:09;14.80;;;8.17;;
20379;SDS011;10349;48.666;8.948;2024-03-02T07:07:36;13.37;;;7.97;;
20379;SDS011;10349;48.666;8.948;2024-03-02T07:10:05;16.70;;;9.00;;
20379;SDS011;10349;48.666;8.948;2024-03-02T07:12:32;15.07;;;9.33;;
20379;SDS011;10349;48.666;8.948;2024-03-02T07:14:58;16.70;;;9.60;;
20379;SDS011;10349;48.666;8.948;2024-03-02T07:17:30;21.23;;;10.23;;
20379;SDS011;10349;48.666;8.948;2024-03-02T07:19:56;21.30;;;11.47;;
20379;SDS011;10349;48.666;8.948;2024-03-02T07:22:22;17.40;;;8.87;;
20379;SDS011;10349;48.666;8.948;2024-03-02T07:24:48;17.47;;;9.10;;
20379;SDS011;10349;48.666;8.948;2024-03-02T07:27:14;15.23;;;8.40;;
20379;SDS011;10349;48.666;8.948;2024-03-02T07:29:41;16.87;;;10.00;;
20379;SDS011;10349;48.666;8.948;2024-03-02T07:32:07;15.57;;;10.20;;
20379;SDS011;10349;48.666;8.948;2024-03-02T07:34:34;20.90;;;8.63;;
20379;SDS011;10349;48.666;8.948;2024-03-02T07:36:59;13.93;;;9.33;;
20379;SDS011;10349;48.666;8.948;2024-03-02T07:39:25;23.03;;;9.07;;
20379;SDS011;10349;48.666;8.948;2024-03-02T07:41:51;14.43;;;8.00;;
20379;SDS011;10349;48.666;8.948;2024-03-02T07:44:17;21.73;;;11.23;;
20379;SDS011;10349;48.666;8.948;2024-03-02T07:46:48;17.03;;;8.30;;
20379;SDS011;10349;48.666;8.948;2024-03-02T07:49:17;13.50;;;8.57;;
20379;SDS011;10349;48.666;8.948;2024-03-02T07:51:43;15.17;;;8.37;;
20379;SDS011;10349;48.666;8.948;2024-03-02T07:54:09;13.10;;;8.67;;
20379;SDS011;10349;48.666;8.948;2024-03-02T07:56:35;21.60;;;11.07;;
20379;SDS011;10349;48.666;8.948;2024-03-02T07:59:01;17.13;;;10.33;;
20379;SDS011;10349;48.666;8.948;2024-03-02T08:01:28;25.53;;;10.67;;
20379;SDS011;10349;48.666;8.948;2024-03-02T08:04:00;18.87;;;10.37;;
20379;SDS011;10349;48.666;8.948;2024-03-02T08:06:28;29.00;;;11.50;;
20379;SDS011;10349;48.666;8.948;2024-03-02T08:08:54;22.10;;;11.73;;
20379;SDS011;10349;48.666;8.948;2024-03-02T08:11:20;30.07;;;12.83;;
20379;SDS011;10349;48.666;8.948;2024-03-02T08:13:46;23.97;;;12.40;;
20379;SDS011;10349;48.666;8.948;2024-03-02T08:16:12;23.90;;;13.30;;
20379;SDS011;10349;48.666;8.948;2024-03-02T08:18:38;17.97;;;10.87;;
20379;SDS011;10349;48.666;8.948;2024-03-02T08:21:04;23.50;;;12.33;;
20379;SDS011;10349;48.666;8.948;2024-03-02T08:23:30;23.47;;;10.70;;
20379;SDS011;10349;48.666;8.948;2024-03-02T08:25:56;24.47;;;9.83;;
20379;SDS011;10349;48.666;8.948;2024-03-02T08:28:23;20.50;;;10.40;;
20379;SDS011;10349;48.666;8.948;2024-03-02T08:30:48;18.23;;;10.70;;
20379;SDS011;10349;48.666;8.948;2024-03-02T08:33:14;25.73;;;10.97;;
20379;SDS011;10349;48.666;8.948;2024-03-02T08:35:39;16.00;;;9.47;;
20379;SDS011;10349;48.666;8.948;2024-03-02T08:38:05;16.83;;;9.63;;
20379;SDS011;10349;48.666;8.948;2024-03-02T08:40:31;15.37;;;8.37;;
20379;SDS011;10349;48.666;8.948;2024-03-02T08:42:57;18.23;;;9.67;;
20379;SDS011;10349;48.666;8.948;2024-03-02T08:45:25;15.60;;;8.60;;
20379;SDS011;10349;48.666;8.948;2024-03-02T08:47:51;14.53;;;9.20;;
20379;SDS011;10349;48.666;8.948;2024-03-02T08:50:18;18.90;;;9.13;;
20379;SDS011;10349;48.666;8.948;2024-03-02T08:52:44;10.53;;;8.00;;
20379;SDS011;10349;48.666;8.948;2024-03-02T08:55:10;11.80;;;8.30;;
20379;SDS011;10349;48.666;8.948;2024-03-02T08:57:36;12.63;;;8.17;;
20379;SDS011;10349;48.666;8.948;2024-03-02T09:00:02;16.30;;;8.03;;
20379;SDS011;10349;48.666;8.948;2024-03-02T09:02:30;14.37;;;7.77;;
20379;SDS011;10349;48.666;8.948;2024-03-02T09:04:56;13.30;;;7.63;;
20379;SDS011;10349;48.666;8.948;2024-03-02T09:07:22;11.20;;;7.40;;
20379;SDS011;10349;48.666;8.948;2024-03-02T09:09:48;10.30;;;7.50;;
20379;SDS011;10349;48.666;8.948;2024-03-02T09:12:14;13.27;;;8.53;;
20379;SDS011;10349;48.666;8.948;2024-03-02T09:14:40;8.23;;;5.70;;
20379;SDS011;10349;48.666;8.948;2024-03-02T09:17:06;10.83;;;6.27;;
20379;SDS011;10349;48.666;8.948;2024-03-02T09:19:33;8.63;;;5.73;;
20379;SDS011;10349;48.666;8.948;2024-03-02T09:21:58;11.33;;;6.10;;
20379;SDS011;10349;48.666;8.948;2024-03-02T09:24:24;10.50;;;5.50;;
20379;SDS011;10349;48.666;8.948;2024-03-02T09:26:50;9.50;;;5.90;;
20379;SDS011;10349;48.666;8.948;2024-03-02T09:29:15;11.63;;;5.47;;
20379;SDS011;10349;48.666;8.948;2024-03-02T09:31:41;7.07;;;4.27;;
20379;SDS011;10349;48.666;8.948;2024-03-02T09:34:07;7.30;;;5.20;;
20379;SDS011;10349;48.666;8.948;2024-03-02T09:36:33;5.83;;;4.50;;
20379;SDS011;10349;48.666;8.948;2024-03-02T09:42:40;4.73;;;3.57;;
20379;SDS011;10349;48.666;8.948;2024-03-02T09:45:06;4.77;;;4.10;;
20379;SDS011;10349;48.666;8.948;2024-03-02T09:47:32;2.90;;;2.60;;
20379;SDS011;10349;48.666;8.948;2024-03-02T09:49:58;6.30;;;3.00;;
20379;SDS011;10349;48.666;8.948;2024-03-02T09:52:24;3.70;;;3.30;;
20379;SDS011;10349;48.666;8.948;2024-03-02T09:54:51;3.43;;;2.83;;
20379;SDS011;10349;48.666;8.948;2024-03-02T09:57:16;3.60;;;3.30;;
20379;SDS011;10349;48.666;8.948;2024-03-02T09:59:42;3.57;;;2.80;;
20379;SDS011;10349;48.666;8.948;2024-03-02T10:02:08;2.43;;;2.07;;
20379;SDS011;10349;48.666;8.948;2024-03-02T10:04:33;5.90;;;2.70;;
20379;SDS011;10349;48.666;8.948;2024-03-02T10:07:10;3.13;;;2.77;;
20379;SDS011;10349;48.666;8.948;2024-03-02T10:09:43;3.80;;;2.27;;
20379;SDS011;10349;48.666;8.948;2024-03-02T10:12:11;4.13;;;2.97;;
20379;SDS011;10349;48.666;8.948;2024-03-02T10:14:39;2.57;;;2.20;;
20379;SDS011;10349;48.666;8.948;2024-03-02T10:17:05;3.07;;;2.20;;
20379;SDS011;10349;48.666;8.948;2024-03-02T10:19:32;3.70;;;3.03;;
20379;SDS011;10349;48.666;8.948;2024-03-02T10:22:00;2.97;;;2.67;;
20379;SDS011;10349;48.666;8.948;2024-03-02T10:24:28;3.80;;;2.93;;
20379;SDS011;10349;48.666;8.948;2024-03-02T10:27:15;3.30;;;3.00;;
20379;SDS011;10349;48.666;8.948;2024-03-02T10:29:42;3.20;;;2.90;;
20379;SDS011;10349;48.666;8.948;2024-03-02T10:32:10;3.97;;;3.13;;
20379;SDS011;10349;48.666;8.948;2024-03-02T10:34:37;3.00;;;2.80;;
20379;SDS011;10349;48.666;8.948;2024-03-02T10:37:05;2.63;;;2.43;;
20379;SDS011;10349;48.666;8.948;2024-03-02T10:39:32;4.20;;;2.60;;
20379;SDS011;10349;48.666;8.948;2024-03-02T10:42:00;4.10;;;2.73;;
20379;SDS011;10349;48.666;8.948;2024-03-02T10:44:30;3.53;;;2.40;;
20379;SDS011;10349;48.666;8.948;2024-03-02T10:46:57;1.80;;;1.57;;
20379;SDS011;10349;48.666;8.948;2024-03-02T10:49:26;3.47;;;1.50;;
20379;SDS011;10349;48.666;8.948;2024-03-02T10:51:53;1.63;;;1.17;;
20379;SDS011;10349;48.666;8.948;2024-03-02T10:54:19;1.20;;;0.90;;
20379;SDS011;10349;48.666;8.948;2024-03-02T10:56:51;1.27;;;1.07;;
20379;SDS011;10349;48.666;8.948;2024-03-02T10:59:26;1.73;;;1.20;;
20379;SDS011;10349;48.666;8.948;2024-03-02T11:01:57;2.70;;;1.10;;
20379;SDS011;10349;48.666;8.948;2024-03-02T11:04:25;1.10;;;0.87;;
20379;SDS011;10349;48.666;8.948;2024-03-02T11:06:52;1.17;;;1.00;;
20379;SDS011;10349;48.666;8.948;2024-03-02T11:09:27;1.10;;;0.97;;
20379;SDS011;10349;48.666;8.948;2024-03-02T11:12:16;2.07;;;1.20;;
20379;SDS011;10349;48.666;8.948;2024-03-02T11:14:47;1.30;;;1.20;;
20379;SDS011;10349;48.666;8.948;2024-03-02T11:17:14;1.33;;;1.23;;
20379;SDS011;10349;48.666;8.948;2024-03-02T11:19:41;2.90;;;1.23;;
20379;SDS011;10349;48.666;8.948;2024-03-02T11:22:08;1.47;;;1.27;;
20379;SDS011;10349;48.666;8.948;2024-03-02T11:24:34;5.93;;;1.43;;
20379;SDS011;10349;48.666;8.948;2024-03-02T11:27:03;1.30;;;1.00;;
20379;SDS011;10349;48.666;8.948;2024-03-02T11:32:21;1.30;;;1.00;;
20379;SDS011;10349;48.666;8.948;2024-03-02T11:34:50;1.50;;;0.90;;
20379;SDS011;10349;48.666;8.948;2024-03-02T11:37:17;1.47;;;1.00;;
20379;SDS011;10349;48.666;8.948;2024-03-02T11:39:44;1.20;;;0.93;;
20379;SDS011;10349;48.666;8.948;2024-03-02T11:42:10;1.10;;;0.90;;
20379;SDS011;10349;48.666;8.948;2024-03-02T11:44:39;1.13;;;1.00;;
20379;SDS011;10349;48.666;8.948;2024-03-02T11:47:16;2.10;;;1.53;;
20379;SDS011;10349;48.666;8.948;2024-03-02T11:49:48;1.57;;;1.10;;
20379;SDS011;10349;48.666;8.948;2024-03-02T11:52:16;1.43;;;1.10;;
20379;SDS011;10349;48.666;8.948;2024-03-02T11:54:46;1.27;;;0.80;;
20379;SDS011;10349;48.666;8.948;2024-03-02T11:57:17;1.63;;;0.90;;
20379;SDS011;10349;48.666;8.948;2024-03-02T11:59:47;1.10;;;0.80;;
20379;SDS011;10349;48.666;8.948;2024-03-02T12:02:19;1.13;;;0.97;;
20379;SDS011;10349;48.666;8.948;2024-03-02T12:04:46;1.10;;;1.00;;
20379;SDS011;10349;48.666;8.948;2024-03-02T12:07:19;1.97;;;0.80;;
20379;SDS011;10349;48.666;8.948;2024-03-02T12:09:48;1.07;;;0.77;;
20379;SDS011;10349;48.666;8.948;2024-03-02T12:12:24;1.10;;;0.70;;
20379;SDS011;10349;48.666;8.948;2024-03-02T12:14:51;1.20;;;0.87;;
20379;SDS011;10349;48.666;8.948;2024-03-02T12:17:20;1.40;;;1.23;;
20379;SDS011;10349;48.666;8.948;2024-03-02T12:19:46;1.20;;;0.90;;
20379;SDS011;10349;48.666;8.948;2024-03-02T12:22:12;1.07;;;0.90;;
20379;SDS011;10349;48.666;8.948;2024-03-02T12:24:38;1.03;;;0.80;;
20379;SDS011;10349;48.666;8.948;2024-03-02T12:27:04;1.77;;;0.70;;
20379;SDS011;10349;48.666;8.948;2024-03-02T12:29:31;1.10;;;0.80;;
20379;SDS011;10349;48.666;8.948;2024-03-02T12:31:56;1.20;;;0.77;;
20379;SDS011;10349;48.666;8.948;2024-03-02T12:34:22;1.10;;;0.70;;
20379;SDS011;10349;48.666;8.948;2024-03-02T12:36:48;1.00;;;0.70;;
20379;SDS011;10349;48.666;8.948;2024-03-02T12:39:17;1.10;;;0.80;;
20379;SDS011;10349;48.666;8.948;2024-03-02T12:41:46;1.20;;;0.93;;
20379;SDS011;10349;48.666;8.948;2024-03-02T12:44:12;1.37;;;0.80;;
20379;SDS011;10349;48.666;8.948;2024-03-02T12:46:37;1.00;;;0.70;;
20379;SDS011;10349;48.666;8.948;2024-03-02T12:49:08;1.00;;;0.90;;
20379;SDS011;10349;48.666;8.948;2024-03-02T12:51:35;1.10;;;0.87;;
20379;SDS011;10349;48.666;8.948;2024-03-02T12:54:02;0.90;;;0.70;;
20379;SDS011;10349;48.666;8.948;2024-03-02T12:56:28;1.10;;;0.90;;
20379;SDS011;10349;48.666;8.948;2024-03-02T12:58:55;1.70;;;1.10;;
20379;SDS011;10349;48.666;8.948;2024-03-02T13:01:21;1.60;;;0.80;;
20379;SDS011;10349;48.666;8.948;2024-03-02T13:03:49;1.20;;;1.00;;
20379;SDS011;10349;48.666;8.948;2024-03-02T13:06:16;1.33;;;0.80;;
20379;SDS011;10349;48.666;8.948;2024-03-02T13:08:43;1.50;;;0.70;;
20379;SDS011;10349;48.666;8.948;2024-03-02T13:11:10;1.33;;;0.90;;
20379;SDS011;10349;48.666;8.948;2024-03-02T13:13:36;1.47;;;1.07;;
20379;SDS011;10349;48.666;8.948;2024-03-02T13:16:03;1.10;;;1.00;;
20379;SDS011;10349;48.666;8.948;2024-03-02T13:18:33;1.67;;;0.77;;
20379;SDS011;10349;48.666;8.948;2024-03-02T13:20:58;1.43;;;0.93;;
20379;SDS011;10349;48.666;8.948;2024-03-02T13:23:24;1.20;;;0.90;;
20379;SDS011;10349;48.666;8.948;2024-03-02T13:25:50;1.43;;;1.23;;
20379;SDS011;10349;48.666;8.948;2024-03-02T13:28:15;1.20;;;1.10;;
20379;SDS011;10349;48.666;8.948;2024-03-02T13:30:41;1.30;;;0.93;;
20379;SDS011;10349;48.666;8.948;2024-03-02T13:33:07;1.43;;;1.10;;
20379;SDS011;10349;48.666;8.948;2024-03-02T13:35:34;1.30;;;1.20;;
20379;SDS011;10349;48.666;8.948;2024-03-02T13:38:00;1.20;;;1.07;;
20379;SDS011;10349;48.666;8.948;2024-03-02T13:40:25;1.67;;;1.30;;
20379;SDS011;10349;48.666;8.948;2024-03-02T13:42:52;1.60;;;1.37;;
20379;SDS011;10349;48.666;8.948;2024-03-02T13:45:19;4.43;;;1.90;;
20379;SDS011;10349;48.666;8.948;2024-03-02T13:47:44;2.13;;;1.63;;
20379;SDS011;10349;48.666;8.948;2024-03-02T13:50:10;1.93;;;1.73;;
20379;SDS011;10349;48.666;8.948;2024-03-02T13:52:36;2.70;;;1.83;;
20379;SDS011;10349;48.666;8.948;2024-03-02T13:55:01;1.70;;;1.60;;
20379;SDS011;10349;48.666;8.948;2024-03-02T13:57:27;1.50;;;1.20;;
20379;SDS011;10349;48.666;8.948;2024-03-02T13:59:53;2.53;;;1.30;;
20379;SDS011;10349;48.666;8.948;2024-03-02T14:02:19;1.77;;;1.20;;
20379;SDS011;10349;48.666;8.948;2024-03-02T14:04:45;1.10;;;0.90;;
20379;SDS011;10349;48.666;8.948;2024-03-02T14:07:13;2.83;;;1.30;;
20379;SDS011;10349;48.666;8.948;2024-03-02T14:09:39;1.73;;;1.17;;
20379;SDS011;10349;48.666;8.948;2024-03-02T14:12:04;1.20;;;1.10;;
20379;SDS011;10349;48.666;8.948;2024-03-02T14:14:31;1.37;;;1.27;;
20379;SDS011;10349;48.666;8.948;2024-03-02T14:16:57;1.43;;;1.13;;
20379;SDS011;10349;48.666;8.948;2024-03-02T14:19:25;1.60;;;1.50;;
20379;SDS011;10349;48.666;8.948;2024-03-02T14:21:52;1.47;;;1.07;;
20379;SDS011;10349;48.666;8.948;2024-03-02T14:24:17;1.50;;;1.23;;
20379;SDS011;10349;48.666;8.948;2024-03-02T14:26:43;1.57;;;1.30;;
20379;SDS011;10349;48.666;8.948;2024-03-02T14:29:10;1.20;;;1.10;;
20379;SDS011;10349;48.666;8.948;2024-03-02T14:31:36;1.80;;;1.30;;
20379;SDS011;10349;48.666;8.948;2024-03-02T14:34:02;1.63;;;1.20;;
20379;SDS011;10349;48.666;8.948;2024-03-02T14:36:27;1.57;;;1.00;;
20379;SDS011;10349;48.666;8.948;2024-03-02T14:38:54;1.33;;;1.23;;
20379;SDS011;10349;48.666;8.948;2024-03-02T14:41:20;1.63;;;1.53;;